Time;durP1;ratioP1;P1;durP2;ratioP2;P2;SDS_P1;SDS_P2;PMS_P1;PMS_P2;Temp;Humidity;BMP_temperature;BMP_pressure;BME280_temperature;BME280_humidity;BME280_pressure;Samples;Min_cycle;Max_cycle;Signal;HPM_P1;HPM_P2
2023/12/22 00:02:05;;;;;;;94.53;45.23;;;;;;;-143.21;82.33;72556.06;5032177;28;20311;-83
2023/12/22 00:04:31;;;;;;;85.50;43.70;;;;;;;-143.21;82.28;72556.06;5031278;28;20205;-83
2023/12/22 00:06:58;;;;;;;84.00;42.80;;;;;;;-143.21;82.36;72554.09;5031254;28;20676;-82
2023/12/22 00:09:25;;;;;;;87.80;41.13;;;;;;;-143.21;82.81;72546.16;5031670;28;20225;-83
2023/12/22 00:11:53;;;;;;;69.50;35.03;;;;;;;-143.21;81.79;72552.09;5033085;28;20285;-83
2023/12/22 00:14:20;;;;;;;72.63;34.90;;;;;;;-143.21;81.84;72591.78;5031309;28;20243;-82
2023/12/22 00:16:47;;;;;;;66.63;34.20;;;;;;;-143.21;83.50;72603.66;5032482;28;20209;-83
2023/12/22 00:19:14;;;;;;;63.10;30.83;;;;;;;-143.21;84.33;72589.78;5031721;28;20203;-83
2023/12/22 00:21:40;;;;;;;64.93;31.80;;;;;;;-143.21;84.43;72573.91;5033011;28;20287;-83
2023/12/22 00:24:07;;;;;;;62.47;33.03;;;;;;;-143.21;84.46;72562.03;5031198;28;20206;-84
2023/12/22 00:26:34;;;;;;;56.17;26.30;;;;;;;-143.21;84.14;72544.16;5031461;28;20327;-83
2023/12/22 00:29:02;;;;;;;49.10;25.60;;;;;;;-143.21;83.33;72552.09;5029707;28;20236;-82
2023/12/22 00:31:29;;;;;;;48.90;25.27;;;;;;;-143.21;83.04;72564.00;5029655;28;20206;-83
2023/12/22 00:33:56;;;;;;;47.13;24.33;;;;;;;-143.21;84.20;72562.03;5030338;28;20206;-83
2023/12/22 00:36:24;;;;;;;45.20;25.37;;;;;;;-143.21;84.88;72548.13;5031347;28;20627;-83
2023/12/22 00:38:51;;;;;;;59.37;27.67;;;;;;;-143.21;84.76;72530.28;5031246;28;20691;-84
2023/12/22 00:41:18;;;;;;;48.83;26.00;;;;;;;-143.21;83.88;72510.44;5030078;28;21496;-83
2023/12/22 00:43:44;;;;;;;50.60;26.50;;;;;;;-143.21;83.53;72508.47;5031187;28;21357;-83
2023/12/22 00:46:14;;;;;;;54.43;26.37;;;;;;;-143.21;83.56;72500.53;5029763;28;20553;-82
2023/12/22 00:48:40;;;;;;;54.93;26.77;;;;;;;-143.21;83.17;72486.66;5030223;28;20230;-83
2023/12/22 00:51:08;;;;;;;53.47;26.30;;;;;;;-143.21;83.17;72490.63;5029595;28;20225;-82
2023/12/22 00:53:34;;;;;;;49.70;25.33;;;;;;;-143.21;82.96;72474.75;5031700;28;20263;-81
2023/12/22 00:56:02;;;;;;;45.63;25.00;;;;;;;-143.21;82.90;72466.81;5030669;28;20207;-80
2023/12/22 00:58:29;;;;;;;48.03;22.40;;;;;;;-143.21;82.69;72472.78;5029657;28;20284;-81
2023/12/22 01:00:56;;;;;;;42.33;20.87;;;;;;;-143.21;82.64;72458.88;5029272;28;20684;-81
2023/12/22 01:03:24;;;;;;;40.13;21.00;;;;;;;-143.21;82.32;72450.97;5029603;28;20210;-81
2023/12/22 01:05:51;;;;;;;42.47;21.87;;;;;;;-143.21;81.64;72443.03;5031294;28;20554;-82
2023/12/22 01:08:18;;;;;;;49.90;24.13;;;;;;;-143.21;81.32;72431.13;5030324;28;20230;-82
2023/12/22 01:10:44;;;;;;;57.50;28.13;;;;;;;-143.21;81.09;72482.69;5030151;28;20277;-81
2023/12/22 01:13:11;;;;;;;72.17;31.33;;;;;;;-143.21;80.84;72502.53;5029459;28;20246;-82
2023/12/22 01:15:38;;;;;;;74.80;36.97;;;;;;;-143.21;82.51;72502.53;5031204;28;20868;-81
2023/12/22 01:18:05;;;;;;;85.70;38.60;;;;;;;-143.21;83.39;72514.41;5030355;28;20212;-82
2023/12/22 01:20:33;;;;;;;81.20;35.83;;;;;;;-143.21;84.27;72500.53;5030463;28;20214;-83
2023/12/22 01:23:00;;;;;;;87.07;37.13;;;;;;;-143.21;84.30;72490.63;5029673;28;20214;-82
2023/12/22 01:25:26;;;;;;;68.33;31.53;;;;;;;-143.21;83.15;72478.72;5030419;28;20222;-83
2023/12/22 01:27:53;;;;;;;66.30;32.10;;;;;;;-143.21;82.39;72498.56;5031611;28;20202;-84
2023/12/22 01:30:20;;;;;;;67.63;32.10;;;;;;;-143.21;83.05;72526.31;5029652;28;20238;-82
2023/12/22 01:32:47;;;;;;;60.37;30.10;;;;;;;-143.21;83.94;72506.50;5030158;28;20210;-82
2023/12/22 01:35:14;;;;;;;52.10;27.17;;;;;;;-143.21;84.19;72492.59;5030395;28;20222;-83
2023/12/22 01:37:42;;;;;;;49.90;25.73;;;;;;;-143.21;82.89;72470.78;5031773;28;20206;-82
2023/12/22 01:40:09;;;;;;;46.87;23.23;;;;;;;-143.21;82.81;72460.88;5029754;28;20209;-83
2023/12/22 01:42:36;;;;;;;45.63;23.10;;;;;;;-143.21;82.51;72456.91;5030466;28;20292;-82
2023/12/22 01:45:03;;;;;;;41.13;22.20;;;;;;;-143.21;82.18;72452.94;5029835;28;20203;-82
2023/12/22 01:47:30;;;;;;;41.33;21.80;;;;;;;-143.21;81.73;72441.03;5030501;28;20219;-82
2023/12/22 01:49:57;;;;;;;38.40;21.53;;;;;;;-143.21;81.86;72443.03;5030773;28;20225;-82
2023/12/22 01:52:25;;;;;;;39.50;21.43;;;;;;;-143.21;81.65;72437.06;5026481;28;20194;-83
2023/12/22 01:54:54;;;;;;;38.90;20.50;;;;;;;-143.21;81.34;72435.09;5027957;28;20202;-82
2023/12/22 01:57:22;;;;;;;39.27;21.43;;;;;;;-143.21;81.55;72433.09;5027623;28;20548;-80
2023/12/22 01:59:50;;;;;;;41.97;20.63;;;;;;;-143.21;81.94;72425.19;5029811;28;20581;-81
2023/12/22 02:02:17;;;;;;;38.27;20.23;;;;;;;-143.21;81.70;72413.28;5025538;28;20232;-80
2023/12/22 02:04:46;;;;;;;40.90;20.93;;;;;;;-143.21;81.20;72411.28;5025370;28;20211;-79
2023/12/22 02:07:13;;;;;;;42.47;20.20;;;;;;;-143.21;81.34;72397.41;5026991;28;20213;-80
2023/12/22 02:09:40;;;;;;;34.03;20.77;;;;;;;-143.21;80.99;72385.50;5028827;28;20230;-80
2023/12/22 02:12:08;;;;;;;43.20;20.70;;;;;;;-143.21;80.84;72395.44;5029133;28;20218;-80
2023/12/22 02:14:35;;;;;;;39.87;20.90;;;;;;;-143.21;81.00;72387.50;5027875;28;20238;-82
2023/12/22 02:17:12;;;;;;;36.23;19.77;;;;;;;-143.21;80.98;72413.28;5027435;28;20199;-83
2023/12/22 02:19:43;;;;;;;36.87;19.50;;;;;;;-143.21;81.18;72425.19;5028097;28;20302;-82
2023/12/22 02:22:11;;;;;;;39.77;20.43;;;;;;;-143.21;82.69;72443.03;5029553;28;20209;-80
2023/12/22 02:24:40;;;;;;;39.77;21.27;;;;;;;-143.21;83.47;72447.00;5029264;28;20203;-82
2023/12/22 02:27:18;;;;;;;37.10;20.07;;;;;;;-143.21;83.31;72415.25;5028494;28;20202;-82
2023/12/22 02:29:50;;;;;;;41.37;19.63;;;;;;;-143.21;83.21;72405.34;5028193;28;20911;-83
2023/12/22 02:32:24;;;;;;;38.17;19.30;;;;;;;-143.21;82.94;72395.44;5028526;28;20225;-82
2023/12/22 02:34:56;;;;;;;34.27;18.10;;;;;;;-143.21;81.23;72401.38;5029934;28;20747;-81
2023/12/22 02:37:24;;;;;;;33.47;17.77;;;;;;;-143.21;81.08;72417.25;5029089;28;20585;-81
2023/12/22 02:39:53;;;;;;;31.83;18.73;;;;;;;-143.21;82.10;72450.97;5029533;28;20633;-82
2023/12/22 02:42:23;;;;;;;33.77;18.20;;;;;;;-143.21;82.78;72429.16;5027821;28;20225;-83
2023/12/22 02:44:50;;;;;;;37.40;18.90;;;;;;;-143.21;82.42;72411.28;5028558;28;20263;-82
2023/12/22 02:47:17;;;;;;;36.80;19.20;;;;;;;-143.21;82.31;72403.34;5029856;28;20214;-82
2023/12/22 02:49:43;;;;;;;36.87;20.00;;;;;;;-143.21;81.76;72391.47;5028454;28;20612;-84
2023/12/22 02:52:10;;;;;;;39.37;20.00;;;;;;;-143.21;81.28;72373.63;5028230;28;20256;-82
2023/12/22 02:54:39;;;;;;;38.17;19.33;;;;;;;-143.21;80.80;72369.66;5029094;28;20213;-82
2023/12/22 02:57:07;;;;;;;35.77;18.57;;;;;;;-143.21;80.20;72335.94;5029785;28;20199;-82
2023/12/22 02:59:34;;;;;;;37.63;19.57;;;;;;;-143.21;79.63;72331.97;5028468;28;20205;-83
2023/12/22 03:02:01;;;;;;;35.13;18.67;;;;;;;-143.21;79.56;72329.97;5028273;28;20264;-82
2023/12/22 03:04:28;;;;;;;38.77;20.00;;;;;;;-143.21;79.76;72329.97;5025858;28;20198;-83
2023/12/22 03:06:55;;;;;;;35.67;19.97;;;;;;;-143.21;79.34;72324.03;5028417;28;20214;-81
2023/12/22 03:09:22;;;;;;;49.80;20.27;;;;;;;-143.21;79.03;72314.13;5029954;28;20222;-82
2023/12/22 03:11:49;;;;;;;37.83;21.00;;;;;;;-143.21;78.74;72308.16;5028208;28;20233;-81
2023/12/22 03:14:17;;;;;;;43.10;21.20;;;;;;;-143.21;78.64;72306.19;5033418;28;20697;-83
2023/12/22 03:16:44;;;;;;;42.93;22.20;;;;;;;-143.21;78.71;72308.16;5033110;28;20230;-82
2023/12/22 03:19:11;;;;;;;44.57;23.50;;;;;;;-143.21;78.63;72300.25;5033225;28;20259;-82
2023/12/22 03:21:37;;;;;;;40.70;23.10;;;;;;;-143.21;78.79;72304.19;5038543;28;20198;-82
2023/12/22 03:24:04;;;;;;;49.17;23.70;;;;;;;-143.21;78.71;72320.06;5036827;28;20206;-82
2023/12/22 03:26:31;;;;;;;47.60;24.47;;;;;;;-143.21;79.00;72320.06;5033183;28;20202;-82
2023/12/22 03:28:58;;;;;;;47.70;24.00;;;;;;;-143.21;79.02;72351.78;5035521;28;20218;-81
2023/12/22 03:31:26;;;;;;;46.43;23.87;;;;;;;-143.21;79.80;72385.50;5037942;28;20217;-82
2023/12/22 03:33:53;;;;;;;42.90;23.20;;;;;;;-143.21;81.30;72389.47;5043657;28;20209;-82
2023/12/22 03:36:20;;;;;;;51.27;23.97;;;;;;;-143.21;81.42;72363.69;5036517;28;20688;-81
2023/12/22 03:38:47;;;;;;;45.63;24.83;;;;;;;-143.21;81.16;72359.72;5027718;28;20210;-81
2023/12/22 03:41:13;;;;;;;49.00;24.67;;;;;;;-143.21;81.13;72351.78;5032546;28;20616;-81
2023/12/22 03:43:40;;;;;;;49.20;24.40;;;;;;;-143.21;80.58;72329.97;5034219;28;20593;-80
2023/12/22 03:46:07;;;;;;;44.43;23.30;;;;;;;-143.21;80.58;72320.06;5033001;28;20561;-81
2023/12/22 03:48:35;;;;;;;42.80;22.83;;;;;;;-143.21;79.74;72310.16;5031826;28;20210;-81
2023/12/22 03:51:02;;;;;;;46.30;23.30;;;;;;;-143.21;79.59;72298.25;5037958;28;20704;-80
2023/12/22 03:53:29;;;;;;;39.27;20.63;;;;;;;-143.21;79.63;72292.31;5033630;28;20202;-81
2023/12/22 03:55:56;;;;;;;42.43;20.20;;;;;;;-143.21;79.10;72286.34;5031193;28;20587;-80
2023/12/22 03:58:24;;;;;;;37.63;20.33;;;;;;;-143.21;78.84;72282.38;5037363;28;20199;-81
2023/12/22 04:00:51;;;;;;;39.23;19.73;;;;;;;-143.21;78.71;72280.41;5025368;28;20203;-82
2023/12/22 04:03:18;;;;;;;39.70;20.50;;;;;;;-143.21;78.71;72272.47;5044485;28;21311;-82
2023/12/22 04:05:46;;;;;;;36.77;19.87;;;;;;;-143.21;78.08;72290.31;5031679;28;21228;-82
2023/12/22 04:08:13;;;;;;;37.80;18.90;;;;;;;-143.21;78.13;72328.00;5033405;28;20210;-82
2023/12/22 04:10:39;;;;;;;40.63;20.57;;;;;;;-143.21;79.58;72359.72;5034655;28;20709;-81
2023/12/22 04:13:06;;;;;;;34.97;19.63;;;;;;;-143.21;80.85;72351.78;5032896;28;20226;-81
2023/12/22 04:15:33;;;;;;;44.87;20.77;;;;;;;-143.21;80.76;72335.94;5030943;28;20824;-82
2023/12/22 04:18:00;;;;;;;37.50;20.07;;;;;;;-143.21;80.73;72339.91;5029830;28;20210;-82
2023/12/22 04:20:26;;;;;;;38.73;19.57;;;;;;;-143.21;80.87;72324.03;5030668;28;20210;-80
2023/12/22 04:22:55;;;;;;;38.23;18.83;;;;;;;-143.21;80.37;72312.13;5026072;28;20214;-80
2023/12/22 04:25:22;;;;;;;39.73;21.17;;;;;;;-143.21;80.34;72306.19;5031225;28;20211;-79
2023/12/22 04:27:49;;;;;;;40.83;21.67;;;;;;;-143.21;79.78;72280.41;5029275;28;20198;-79
2023/12/22 04:30:16;;;;;;;44.23;21.33;;;;;;;-143.21;79.74;72272.47;5029708;28;20677;-81
2023/12/22 04:32:43;;;;;;;41.87;22.10;;;;;;;-143.21;79.66;72280.41;5029644;28;20218;-81
2023/12/22 04:35:10;;;;;;;43.10;22.87;;;;;;;-143.21;79.77;72246.69;5031792;28;20218;-81
2023/12/22 04:37:37;;;;;;;42.43;23.80;;;;;;;-143.21;80.26;72256.59;5029661;28;20217;-82
2023/12/22 04:40:06;;;;;;;41.90;23.20;;;;;;;-143.21;79.77;72246.69;5029647;28;20290;-82
2023/12/22 04:42:33;;;;;;;41.77;22.63;;;;;;;-143.21;80.22;72248.66;5030807;28;20203;-82
2023/12/22 04:45:00;;;;;;;44.17;22.90;;;;;;;-143.21;80.74;72238.75;5030106;28;20219;-82
2023/12/22 04:47:27;;;;;;;38.13;21.30;;;;;;;-143.21;80.24;72240.75;5031369;28;20214;-81
2023/12/22 04:49:54;;;;;;;41.20;22.13;;;;;;;-143.21;80.23;72246.69;5027987;28;20700;-82
2023/12/22 04:52:20;;;;;;;42.20;22.43;;;;;;;-143.21;81.54;72300.25;5030587;28;20221;-82
2023/12/22 04:54:47;;;;;;;39.23;22.30;;;;;;;-143.21;83.13;72310.16;5030937;28;20207;-82
2023/12/22 04:57:15;;;;;;;41.27;22.10;;;;;;;-143.21;83.83;72300.25;5031745;28;20265;-81
2023/12/22 04:59:42;;;;;;;38.47;21.97;;;;;;;-143.21;84.39;72282.38;5029881;28;20847;-82
2023/12/22 05:02:09;;;;;;;37.43;20.80;;;;;;;-143.21;84.28;72266.53;5029229;28;20214;-83
2023/12/22 05:04:35;;;;;;;36.13;20.07;;;;;;;-143.21;83.34;72250.66;5029827;28;20207;-81
2023/12/22 05:07:06;;;;;;;35.77;19.80;;;;;;;-143.21;83.07;72252.63;5028551;28;20214;-79
2023/12/22 05:09:33;;;;;;;32.67;19.27;;;;;;;-143.21;83.43;72234.78;5028608;28;20203;-82
2023/12/22 05:12:00;;;;;;;35.43;19.70;;;;;;;-143.21;82.91;72222.91;5026617;28;20638;-79
2023/12/22 05:14:28;;;;;;;37.03;20.43;;;;;;;-143.21;82.35;72224.88;5030518;28;20705;-83
2023/12/22 05:16:56;;;;;;;32.87;18.57;;;;;;;-143.21;82.45;72224.88;5029561;28;20214;-81
2023/12/22 05:19:23;;;;;;;36.23;19.47;;;;;;;-143.21;82.33;72224.88;5027840;28;20211;-81
2023/12/22 05:21:52;;;;;;;35.37;19.60;;;;;;;-143.21;82.39;72220.91;5029586;28;20231;-80
2023/12/22 05:24:19;;;;;;;22.40;12.47;;;;;;;-143.21;84.61;72205.03;5029410;28;20276;-81
2023/12/22 05:26:46;;;;;;;16.90;9.10;;;;;;;-143.21;86.97;72163.41;5029955;28;20214;-81
2023/12/22 05:29:12;;;;;;;25.60;14.60;;;;;;;-143.21;86.44;72139.59;5029978;28;20214;-81
2023/12/22 05:31:41;;;;;;;28.67;14.67;;;;;;;-143.21;85.09;72139.59;5029403;28;20735;-80
2023/12/22 05:34:08;;;;;;;32.87;18.27;;;;;;;-143.21;84.17;72169.34;5028032;28;20545;-83
2023/12/22 05:36:34;;;;;;;31.67;18.07;;;;;;;-143.21;84.18;72201.09;5029470;28;20199;-82
2023/12/22 05:39:01;;;;;;;33.37;17.97;;;;;;;-143.21;85.41;72197.13;5028162;28;20213;-82
2023/12/22 05:41:28;;;;;;;32.13;18.13;;;;;;;-143.21;85.87;72191.16;5032120;28;20202;-82
2023/12/22 05:43:55;;;;;;;33.33;17.80;;;;;;;-143.21;85.70;72191.16;5029780;28;20222;-83
2023/12/22 05:46:22;;;;;;;32.90;17.83;;;;;;;-143.21;85.85;72169.34;5030603;28;20195;-83
2023/12/22 05:48:50;;;;;;;29.33;16.57;;;;;;;-143.21;85.80;72165.38;5028809;28;20219;-83
2023/12/22 05:51:16;;;;;;;29.13;16.73;;;;;;;-143.21;85.83;72149.53;5030009;28;20224;-81
2023/12/22 05:53:44;;;;;;;28.90;15.57;;;;;;;-143.21;85.82;72143.56;5030435;28;20693;-82
2023/12/22 05:56:29;;;;;;;31.00;17.13;;;;;;;-143.21;85.49;72133.66;5029219;28;20207;-82
2023/12/22 05:58:56;;;;;;;27.50;16.37;;;;;;;-143.21;85.20;72129.69;5029916;28;20210;-82
2023/12/22 06:01:23;;;;;;;29.53;17.00;;;;;;;-143.21;85.50;72117.78;5030560;28;20233;-82
2023/12/22 06:03:51;;;;;;;27.10;15.10;;;;;;;-143.21;85.22;72113.81;5031774;28;20687;-85
2023/12/22 06:06:18;;;;;;;24.87;15.43;;;;;;;-143.21;84.74;72117.78;5030091;28;20211;-83
2023/12/22 06:08:45;;;;;;;27.80;14.77;;;;;;;-143.21;84.12;72159.44;5029612;28;20293;-83
2023/12/22 06:11:12;;;;;;;26.57;16.03;;;;;;;-143.21;84.60;72189.19;5029524;28;20222;-83
2023/12/22 06:13:39;;;;;;;23.47;14.30;;;;;;;-143.21;85.99;72205.03;5029524;28;20242;-82
2023/12/22 06:16:06;;;;;;;32.43;16.17;;;;;;;-143.21;86.83;72205.03;5030282;28;20206;-83
2023/12/22 06:18:33;;;;;;;26.40;14.73;;;;;;;-143.21;86.98;72187.19;5029280;28;20278;-83
2023/12/22 06:21:01;;;;;;;30.83;14.93;;;;;;;-143.21;86.36;72175.31;5029267;28;20203;-83
2023/12/22 06:23:28;;;;;;;28.37;14.93;;;;;;;-143.21;86.32;72177.28;5026421;28;20216;-81
2023/12/22 06:25:55;;;;;;;23.87;14.83;;;;;;;-143.21;86.41;72157.44;5030966;28;20208;-82
2023/12/22 06:28:21;;;;;;;26.97;14.50;;;;;;;-143.21;85.86;72161.41;5029234;28;20203;-83
2023/12/22 06:30:48;;;;;;;26.03;14.60;;;;;;;-143.21;85.55;72165.38;5029600;28;20218;-83
2023/12/22 06:33:15;;;;;;;25.10;14.17;;;;;;;-143.21;86.09;72171.34;5026078;28;20217;-81
2023/12/22 06:35:42;;;;;;;27.17;14.13;;;;;;;-143.21;85.53;72149.53;5027426;28;20219;-79
2023/12/22 06:38:11;;;;;;;23.90;13.83;;;;;;;-143.21;85.51;72161.41;5028013;28;20210;-81
2023/12/22 06:40:38;;;;;;;29.70;17.03;;;;;;;-143.21;84.99;72161.41;5028208;28;20203;-82
2023/12/22 06:43:05;;;;;;;26.33;15.80;;;;;;;-143.21;85.20;72173.31;5005374;28;20210;-82
2023/12/22 06:45:32;;;;;;;26.17;15.73;;;;;;;-143.21;85.40;72169.34;5022850;28;20284;-83
2023/12/22 06:47:59;;;;;;;31.20;16.37;;;;;;;-143.21;85.66;72157.44;5027271;28;20204;-81
2023/12/22 06:50:28;;;;;;;30.67;17.13;;;;;;;-143.21;85.30;72155.47;5028411;28;20222;-83
2023/12/22 06:52:55;;;;;;;33.20;17.57;;;;;;;-143.21;83.91;72173.31;5028590;28;20206;-82
2023/12/22 06:55:23;;;;;;;29.60;17.53;;;;;;;-143.21;84.18;72214.97;5024827;28;20285;-83
2023/12/22 06:57:51;;;;;;;28.67;17.07;;;;;;;-143.21;85.99;72230.81;5029117;28;20301;-83
2023/12/22 07:00:18;;;;;;;32.63;17.37;;;;;;;-143.21;86.93;72214.97;5028605;28;20233;-82
2023/12/22 07:02:45;;;;;;;30.57;16.80;;;;;;;-143.21;87.46;72205.03;5026937;28;20202;-82
2023/12/22 07:05:30;;;;;;;29.53;16.70;;;;;;;-143.21;87.38;72185.22;5027915;28;20199;-83
2023/12/22 07:07:57;;;;;;;33.60;17.30;;;;;;;-143.21;86.88;72173.31;5024675;28;20214;-82
2023/12/22 07:10:25;;;;;;;27.67;16.43;;;;;;;-143.21;85.46;72191.16;5025729;28;20273;-82
2023/12/22 07:12:52;;;;;;;29.10;16.97;;;;;;;-143.21;85.33;72207.03;5025986;28;20671;-82
2023/12/22 07:15:19;;;;;;;33.00;17.90;;;;;;;-143.21;86.28;72220.91;5007322;28;20333;-81
2023/12/22 07:17:46;;;;;;;33.50;17.53;;;;;;;-143.21;87.01;72216.94;5007165;28;20215;-83
2023/12/22 07:20:13;;;;;;;31.37;17.67;;;;;;;-143.21;87.38;72201.09;5005485;28;20215;-82
2023/12/22 07:22:39;;;;;;;29.50;16.50;;;;;;;-143.21;87.43;72187.19;5008277;28;20204;-82
2023/12/22 07:25:08;;;;;;;29.27;17.07;;;;;;;-143.21;86.96;72179.25;5005578;28;20198;-82
2023/12/22 07:27:36;;;;;;;29.87;16.90;;;;;;;-143.21;86.66;72171.34;5005632;28;20212;-80
2023/12/22 07:30:03;;;;;;;32.17;17.67;;;;;;;-143.21;86.78;72179.25;5006686;28;20213;-81
2023/12/22 07:32:30;;;;;;;28.60;16.93;;;;;;;-143.21;86.44;72159.44;5007884;28;20204;-82
2023/12/22 07:34:57;;;;;;;35.03;17.30;;;;;;;-143.21;86.36;72147.53;5007833;28;20216;-81
2023/12/22 07:37:23;;;;;;;32.80;18.40;;;;;;;-143.21;85.25;72125.72;5005656;28;20216;-81
2023/12/22 07:39:50;;;;;;;36.50;18.77;;;;;;;-143.21;85.54;72131.69;5006630;28;20216;-82
2023/12/22 07:42:17;;;;;;;32.80;17.73;;;;;;;-143.21;85.43;72125.72;5007940;28;20217;-82
2023/12/22 07:44:45;;;;;;;32.30;17.57;;;;;;;-143.21;84.85;72107.88;5005866;28;20210;-81
2023/12/22 07:47:12;;;;;;;33.77;18.37;;;;;;;-143.21;84.73;72113.81;5006977;28;20209;-79
2023/12/22 07:49:40;;;;;;;38.07;19.57;;;;;;;-143.21;84.62;72109.84;5002280;28;20693;-79
2023/12/22 07:52:07;;;;;;;32.53;18.20;;;;;;;-143.21;85.34;72129.69;5003234;28;20247;-79
2023/12/22 07:54:34;;;;;;;33.07;17.70;;;;;;;-143.21;84.91;72155.47;5007919;28;20565;-82
2023/12/22 07:57:01;;;;;;;36.20;17.97;;;;;;;-143.21;86.58;72199.09;5005950;28;20210;-82
2023/12/22 07:59:27;;;;;;;37.97;19.13;;;;;;;-143.21;88.45;72189.19;5001459;28;20231;-76
2023/12/22 08:01:55;;;;;;;36.33;19.10;;;;;;;-143.21;88.18;72165.38;4998030;28;20204;-77
2023/12/22 08:04:21;;;;;;;31.93;18.63;;;;;;;-143.21;88.74;72167.38;5004225;28;20195;-79
2023/12/22 08:06:49;;;;;;;33.90;18.97;;;;;;;-143.21;88.87;72153.47;5005744;28;20661;-80
2023/12/22 08:09:15;;;;;;;35.63;19.30;;;;;;;-143.21;88.55;72181.25;4999660;28;20205;-81
2023/12/22 08:11:46;;;;;;;35.73;19.57;;;;;;;-143.21;87.51;72205.03;5005242;28;20279;-80
2023/12/22 08:14:13;;;;;;;38.23;20.20;;;;;;;-143.21;88.79;72218.94;5019145;28;20330;-80
2023/12/22 08:16:40;;;;;;;38.97;21.40;;;;;;;-143.21;89.95;72214.97;5025521;28;20282;-83
2023/12/22 08:19:08;;;;;;;43.10;21.97;;;;;;;-143.21;90.55;72199.09;5026600;28;20198;-84
2023/12/22 08:21:35;;;;;;;42.97;23.07;;;;;;;-143.21;90.60;72181.25;5029657;28;20209;-82
2023/12/22 08:24:01;;;;;;;41.30;22.47;;;;;;;-143.21;90.77;72173.31;5023462;28;20662;-79
2023/12/22 08:26:28;;;;;;;40.60;23.70;;;;;;;-143.21;90.63;72157.44;5028171;28;20204;-78
2023/12/22 08:28:55;;;;;;;41.73;21.93;;;;;;;-143.21;90.71;72141.59;5028093;28;20209;-78
2023/12/22 08:31:22;;;;;;;39.87;21.20;;;;;;;-143.21;90.39;72145.56;5024099;28;20236;-79
2023/12/22 08:33:49;;;;;;;40.37;20.43;;;;;;;-143.21;90.13;72133.66;5027725;28;20212;-78
2023/12/22 08:36:17;;;;;;;38.37;20.10;;;;;;;-143.21;90.00;72129.69;5027570;28;20216;-79
2023/12/22 08:38:44;;;;;;;34.10;19.93;;;;;;;-143.21;89.25;72123.75;5030760;28;20235;-83
2023/12/22 08:41:11;;;;;;;37.23;21.00;;;;;;;-143.21;88.86;72105.91;5028249;28;20580;-77
2023/12/22 08:43:39;;;;;;;34.40;21.33;;;;;;;-143.21;89.32;72115.81;5024473;28;20217;-79
2023/12/22 08:46:06;;;;;;;35.43;20.03;;;;;;;-143.21;89.37;72115.81;5026534;28;20334;-78
2023/12/22 08:48:33;;;;;;;34.97;20.53;;;;;;;-143.21;89.21;72109.84;5027582;28;20293;-81
2023/12/22 08:51:00;;;;;;;34.17;20.60;;;;;;;-143.21;89.57;72147.53;5030204;28;20224;-84
2023/12/22 08:53:29;;;;;;;40.30;20.40;;;;;;;-143.21;88.95;72179.25;5030089;28;20197;-80
2023/12/22 08:55:56;;;;;;;41.67;22.30;;;;;;;-143.21;90.47;72189.19;5026175;28;20200;-84
2023/12/22 08:58:23;;;;;;;43.27;22.60;;;;;;;-143.21;90.93;72177.28;5030954;28;20216;-83
2023/12/22 09:00:51;;;;;;;44.00;23.37;;;;;;;-143.21;91.81;72159.44;5029908;28;20193;-82
2023/12/22 09:03:18;;;;;;;42.90;24.23;;;;;;;-143.21;91.96;72147.53;5030032;28;20582;-82
2023/12/22 09:05:45;;;;;;;46.57;25.17;;;;;;;-143.21;92.51;72161.41;5030185;28;20279;-83
2023/12/22 09:08:11;;;;;;;43.20;24.40;;;;;;;-143.21;91.65;72183.22;5024591;28;20692;-81
2023/12/22 09:10:40;;;;;;;42.97;25.43;;;;;;;-143.21;92.71;72197.13;5027352;28;20204;-81
2023/12/22 09:13:06;;;;;;;45.93;26.33;;;;;;;-143.21;93.30;72191.16;5022794;28;20585;-81
2023/12/22 09:15:33;;;;;;;42.17;24.73;;;;;;;-143.21;93.91;72179.25;5025399;28;20329;-81
2023/12/22 09:18:00;;;;;;;43.73;23.63;;;;;;;-143.21;94.66;72153.47;5026713;28;20971;-80
2023/12/22 09:20:28;;;;;;;41.17;22.90;;;;;;;-143.21;94.41;72127.72;5022029;28;20271;-80
2023/12/22 09:22:55;;;;;;;32.83;21.40;;;;;;;-143.21;94.51;72115.81;5028386;28;20197;-82
2023/12/22 09:25:26;;;;;;;38.70;23.10;;;;;;;-143.21;93.54;72099.94;5028496;28;20200;-83
2023/12/22 09:27:54;;;;;;;44.23;23.23;;;;;;;-143.21;93.74;72082.09;5028994;28;20208;-81
2023/12/22 09:30:21;;;;;;;40.00;24.13;;;;;;;-143.21;92.89;72084.06;5024271;28;20578;-82
2023/12/22 09:32:48;;;;;;;58.00;31.97;;;;;;;-143.21;93.31;72074.16;5030807;28;20291;-84
2023/12/22 09:35:16;;;;;;;57.33;31.50;;;;;;;-143.21;92.84;72062.25;5028913;28;20221;-81
2023/12/22 09:37:43;;;;;;;55.87;30.60;;;;;;;-143.21;92.71;72062.25;5026829;28;20293;-81
2023/12/22 09:40:11;;;;;;;50.40;28.37;;;;;;;-143.21;93.04;72042.44;5024975;28;20220;-81
2023/12/22 09:42:41;;;;;;;43.83;25.43;;;;;;;-143.21;93.01;72032.53;5028470;28;20566;-83
2023/12/22 09:45:12;;;;;;;43.53;24.67;;;;;;;-143.21;92.94;72024.59;5029733;28;20597;-78
2023/12/22 09:47:42;;;;;;;41.53;24.57;;;;;;;-143.21;92.26;72024.59;5030075;28;20201;-81
2023/12/22 09:50:10;;;;;;;41.13;24.93;;;;;;;-143.21;92.78;72016.66;5022439;28;20621;-82
2023/12/22 09:52:37;;;;;;;41.97;24.20;;;;;;;-143.21;93.00;72008.72;5022398;28;20238;-79
2023/12/22 09:55:05;;;;;;;39.40;23.67;;;;;;;-143.21;93.17;72000.78;5027891;28;20206;-79
2023/12/22 09:57:33;;;;;;;38.27;21.80;;;;;;;-143.21;93.07;71992.88;5028020;28;20281;-80
2023/12/22 10:00:02;;;;;;;40.43;22.67;;;;;;;-143.21;93.02;71957.16;5026745;28;20703;-81
2023/12/22 10:02:34;;;;;;;30.93;19.20;;;;;;;-143.21;92.67;71951.22;5025787;28;20199;-81
2023/12/22 10:05:01;;;;;;;39.57;22.70;;;;;;;-143.21;93.21;71937.34;5026685;28;20207;-81
2023/12/22 10:07:27;;;;;;;29.97;16.90;;;;;;;-143.21;92.86;71915.53;5028120;28;20597;-79
2023/12/22 10:09:56;;;;;;;26.53;14.73;;;;;;;-143.21;92.42;71901.66;5024880;28;20202;-83
2023/12/22 10:12:23;;;;;;;21.80;14.20;;;;;;;-143.21;92.22;71907.59;5028924;28;20218;-81
2023/12/22 10:14:52;;;;;;;21.77;12.70;;;;;;;-143.21;91.60;71895.69;5023886;28;20277;-81
2023/12/22 10:17:19;;;;;;;21.80;12.87;;;;;;;-143.21;91.63;71897.69;5022873;28;20199;-86
2023/12/22 10:19:48;;;;;;;19.30;12.07;;;;;;;-143.21;91.93;71891.72;5018531;28;20226;-81
2023/12/22 10:22:14;;;;;;;21.80;12.13;;;;;;;-143.21;91.70;71871.91;5025373;28;20195;-82
2023/12/22 10:24:47;;;;;;;17.70;11.57;;;;;;;-143.21;91.45;71856.03;5026022;28;20225;-81
2023/12/22 10:27:13;;;;;;;20.63;10.87;;;;;;;-143.21;91.02;71848.09;5023753;28;20289;-80
2023/12/22 10:29:41;;;;;;;17.30;10.20;;;;;;;-143.21;90.89;71828.28;5027196;28;20238;-81
2023/12/22 10:32:09;;;;;;;20.77;11.00;;;;;;;-143.21;89.89;71808.44;5025189;28;20706;-81
2023/12/22 10:34:36;;;;;;;18.10;10.77;;;;;;;-143.21;89.65;71812.41;5021686;28;20203;-82
2023/12/22 10:37:05;;;;;;;23.00;13.80;;;;;;;-143.21;89.45;71810.44;5024834;28;20206;-82
2023/12/22 10:39:32;;;;;;;21.63;13.70;;;;;;;-143.21;89.22;71812.41;5028160;28;20289;-82
2023/12/22 10:42:00;;;;;;;19.47;13.03;;;;;;;-143.21;89.74;71796.56;5026784;28;20278;-83
2023/12/22 10:44:28;;;;;;;25.97;13.40;;;;;;;-143.21;90.06;71762.84;5023572;28;20207;-81
2023/12/22 10:46:55;;;;;;;19.83;12.50;;;;;;;-143.21;89.19;71705.34;5027644;28;20672;-81
2023/12/22 10:49:22;;;;;;;23.67;12.87;;;;;;;-143.21;86.57;71659.75;5026786;28;20203;-83
2023/12/22 10:52:21;;;;;;;22.23;12.90;;;;;;;-143.21;84.88;71606.22;5028291;28;20229;-82
2023/12/22 10:54:50;;;;;;;18.23;10.90;;;;;;;-143.21;82.73;71538.78;5016143;28;20198;-82
2023/12/22 10:57:19;;;;;;;21.27;14.17;;;;;;;-143.21;80.45;71485.25;5027126;28;20277;-81
2023/12/22 10:59:47;;;;;;;21.57;13.73;;;;;;;-143.21;78.92;71467.41;5025019;28;20591;-81
2023/12/22 11:02:17;;;;;;;22.23;13.07;;;;;;;-143.21;78.46;71469.41;5026542;28;20214;-80
2023/12/22 11:04:50;;;;;;;18.43;10.93;;;;;;;-143.21;78.27;71475.34;5027866;28;20232;-80